createdAt,value
2019-03-17T00:01:40.599Z,10.07
2019-03-17T00:04:14.302Z,10.01
2019-03-17T00:06:47.944Z,10.00
2019-03-17T00:09:22.844Z,10.00
2019-03-17T00:11:58.266Z,9.96
2019-03-17T00:14:32.060Z,9.98
2019-03-17T00:17:05.966Z,9.99
2019-03-17T00:19:41.348Z,10.07
2019-03-17T00:22:15.525Z,10.04
2019-03-17T00:24:49.188Z,10.06
2019-03-17T00:27:26.457Z,10.10
2019-03-17T00:30:02.518Z,10.06
2019-03-17T00:32:38.904Z,10.07
2019-03-17T00:35:12.910Z,10.10
2019-03-17T00:37:46.551Z,10.05
2019-03-17T00:40:20.648Z,10.11
2019-03-17T00:42:55.365Z,10.06
2019-03-17T00:45:30.068Z,10.05
2019-03-17T00:48:05.566Z,10.06
2019-03-17T00:50:39.652Z,9.99
2019-03-17T00:53:13.702Z,10.03
2019-03-17T00:55:48.371Z,10.08
2019-03-17T00:58:21.973Z,10.16
2019-03-17T01:00:55.898Z,10.13
2019-03-17T01:03:29.999Z,10.09
2019-03-17T01:06:03.870Z,10.08
2019-03-17T01:08:37.613Z,10.09
2019-03-17T01:11:14.613Z,10.08
2019-03-17T01:13:48.299Z,10.08
2019-03-17T01:16:23.031Z,10.08
2019-03-17T01:18:57.039Z,10.03
2019-03-17T01:21:30.644Z,10.06
2019-03-17T01:24:04.634Z,10.12
2019-03-17T01:26:38.365Z,10.01
2019-03-17T01:29:13.195Z,10.02
2019-03-17T01:31:47.923Z,9.99
2019-03-17T01:34:23.442Z,10.07
2019-03-17T01:36:58.303Z,9.97
2019-03-17T01:39:33.296Z,9.97
2019-03-17T01:42:07.453Z,10.01
2019-03-17T01:44:41.219Z,10.01
2019-03-17T01:47:14.834Z,9.94
2019-03-17T01:49:48.730Z,9.84
2019-03-17T01:52:22.366Z,9.91
2019-03-17T01:54:56.084Z,9.94
2019-03-17T01:57:31.070Z,9.92
2019-03-17T02:00:05.208Z,9.91
2019-03-17T02:02:38.886Z,9.97
2019-03-17T02:05:22.134Z,9.96
2019-03-17T02:07:51.263Z,10.01
2019-03-17T02:10:25.054Z,9.97
2019-03-17T02:12:59.899Z,9.91
2019-03-17T02:15:34.709Z,9.97
2019-03-17T02:18:23.818Z,9.91
2019-03-17T02:20:58.928Z,9.91
2019-03-17T02:23:32.582Z,9.89
2019-03-17T02:26:06.335Z,9.85
2019-03-17T02:28:40.379Z,9.92
2019-03-17T02:31:14.081Z,9.89
2019-03-17T02:33:48.032Z,9.81
2019-03-17T02:36:21.803Z,9.89
2019-03-17T02:38:57.220Z,9.81
2019-03-17T02:41:33.889Z,9.77
2019-03-17T02:44:07.710Z,9.75
2019-03-17T02:46:42.537Z,9.77
2019-03-17T02:49:18.288Z,9.83
2019-03-17T02:51:53.525Z,9.80
2019-03-17T02:54:27.332Z,9.75
2019-03-17T02:57:01.460Z,9.80
2019-03-17T02:59:35.553Z,9.83
2019-03-17T03:02:09.287Z,9.73
2019-03-17T03:04:42.990Z,9.65
2019-03-17T03:07:17.704Z,9.64
2019-03-17T03:09:51.656Z,9.58
2019-03-17T03:12:26.443Z,9.58
2019-03-17T03:15:00.554Z,9.67
2019-03-17T03:17:36.428Z,9.58
2019-03-17T03:20:10.686Z,9.59
2019-03-17T03:22:44.659Z,9.54
2019-03-17T03:25:18.542Z,9.57
2019-03-17T03:27:52.187Z,9.48
2019-03-17T03:30:27.077Z,9.44
2019-03-17T03:33:00.838Z,9.39
2019-03-17T03:35:36.752Z,9.33
2019-03-17T03:38:10.484Z,9.35
2019-03-17T03:40:45.353Z,9.39
2019-03-17T03:43:20.902Z,9.36
2019-03-17T03:45:54.741Z,9.38
2019-03-17T03:48:29.578Z,9.39
2019-03-17T03:51:03.447Z,9.46
2019-03-17T03:53:38.317Z,9.54
2019-03-17T03:56:12.486Z,9.59
2019-03-17T03:58:46.896Z,9.64
2019-03-17T04:01:20.594Z,9.70
2019-03-17T04:03:54.430Z,9.74
2019-03-17T04:06:29.418Z,9.71
2019-03-17T04:09:04.973Z,9.72
2019-03-17T04:11:39.487Z,9.81
2019-03-17T04:14:16.719Z,9.80
2019-03-17T04:16:51.495Z,9.82
2019-03-17T04:19:25.406Z,9.84
2019-03-17T04:21:59.142Z,9.89
2019-03-17T04:24:33.072Z,9.86
2019-03-17T04:27:06.825Z,9.90
2019-03-17T04:29:42.990Z,9.95
2019-03-17T04:32:16.999Z,9.97
2019-03-17T04:34:52.142Z,9.90
2019-03-17T04:37:25.898Z,9.91
2019-03-17T04:40:00.873Z,9.94
2019-03-17T04:42:34.725Z,9.97
2019-03-17T04:45:08.458Z,9.95
2019-03-17T04:47:42.260Z,9.99
2019-03-17T04:50:17.034Z,9.97
2019-03-17T04:52:50.819Z,9.97
2019-03-17T04:55:26.388Z,9.93
2019-03-17T04:58:00.168Z,9.88
2019-03-17T05:00:35.267Z,9.79
2019-03-17T05:03:08.937Z,9.77
2019-03-17T05:05:44.891Z,9.74
2019-03-17T05:08:20.319Z,9.72
2019-03-17T05:10:55.375Z,9.67
2019-03-17T05:13:31.537Z,9.59
2019-03-17T05:16:05.226Z,9.61
2019-03-17T05:18:39.086Z,9.60
2019-03-17T05:21:13.894Z,9.60
2019-03-17T05:23:49.221Z,9.64
2019-03-17T05:26:23.381Z,9.65
2019-03-17T05:28:57.143Z,9.65
2019-03-17T05:31:30.896Z,9.70
2019-03-17T05:34:05.684Z,9.69
2019-03-17T05:36:41.126Z,9.64
2019-03-17T05:39:16.678Z,9.64
2019-03-17T05:41:52.223Z,9.64
2019-03-17T05:44:27.873Z,9.68
2019-03-17T05:47:01.918Z,9.68
2019-03-17T05:49:36.817Z,9.66
2019-03-17T05:52:10.617Z,9.72
2019-03-17T05:54:44.240Z,9.77
2019-03-17T05:57:19.807Z,9.76
2019-03-17T05:59:53.476Z,9.78
2019-03-17T06:02:29.030Z,9.79
2019-03-17T06:05:05.295Z,9.82
2019-03-17T06:07:38.974Z,9.84
2019-03-17T06:10:12.744Z,9.84
2019-03-17T06:12:46.410Z,9.84
2019-03-17T06:15:20.055Z,9.91
2019-03-17T06:17:53.808Z,9.97
2019-03-17T06:20:29.570Z,10.03
2019-03-17T06:23:03.457Z,10.10
2019-03-17T06:25:37.335Z,10.08
2019-03-17T06:28:11.057Z,10.19
2019-03-17T06:30:46.034Z,10.17
2019-03-17T06:33:20.847Z,10.17
2019-03-17T06:35:56.453Z,10.15
2019-03-17T06:38:30.147Z,10.13
2019-03-17T06:41:04.438Z,10.10
2019-03-17T06:43:38.377Z,10.13
2019-03-17T06:46:14.610Z,10.13
2019-03-17T06:48:48.633Z,10.09
2019-03-17T06:51:22.266Z,10.06
2019-03-17T06:54:14.898Z,10.07
2019-03-17T06:56:48.907Z,10.00
2019-03-17T06:59:23.580Z,9.94
2019-03-17T07:01:57.524Z,10.01
2019-03-17T07:04:33.888Z,10.02
2019-03-17T07:07:07.690Z,10.07
2019-03-17T07:09:42.103Z,10.03
2019-03-17T07:12:16.846Z,10.17
2019-03-17T07:14:50.662Z,10.03
2019-03-17T07:17:24.751Z,10.21
2019-03-17T07:20:00.440Z,10.17
2019-03-17T07:22:34.314Z,10.23
2019-03-17T07:25:08.451Z,10.29
2019-03-17T07:27:42.364Z,10.37
2019-03-17T07:30:16.497Z,10.40
2019-03-17T07:32:51.241Z,10.31
2019-03-17T07:35:26.087Z,10.35
2019-03-17T07:38:00.141Z,10.34
2019-03-17T07:40:34.170Z,10.36
2019-03-17T07:43:09.907Z,10.41
2019-03-17T07:45:43.853Z,10.32
2019-03-17T07:48:19.362Z,10.26
2019-03-17T07:50:54.213Z,10.30
2019-03-17T07:53:27.941Z,10.28
2019-03-17T07:56:01.943Z,10.35
2019-03-17T07:58:36.029Z,10.43
2019-03-17T08:01:09.743Z,10.46
2019-03-17T08:03:45.093Z,10.47
2019-03-17T08:06:21.750Z,10.48
2019-03-17T08:08:55.507Z,10.61
2019-03-17T08:11:30.025Z,10.61
2019-03-17T08:14:04.809Z,10.62
2019-03-17T08:16:40.821Z,10.74
2019-03-17T08:19:17.440Z,10.61
2019-03-17T08:21:51.216Z,10.59
2019-03-17T08:24:24.899Z,10.48
2019-03-17T08:26:58.890Z,10.45
2019-03-17T08:29:32.756Z,10.33
2019-03-17T08:32:06.528Z,10.33
2019-03-17T08:34:43.767Z,10.30
2019-03-17T08:37:17.586Z,10.26
2019-03-17T08:39:51.324Z,10.21
2019-03-17T08:42:25.147Z,10.27
2019-03-17T08:44:58.872Z,10.21
2019-03-17T08:47:34.365Z,10.24
2019-03-17T08:50:09.076Z,10.21
2019-03-17T08:52:43.066Z,10.18
2019-03-17T08:55:16.659Z,10.24
2019-03-17T08:57:50.263Z,10.27
2019-03-17T09:00:24.114Z,10.35
2019-03-17T09:02:57.840Z,10.27
2019-03-17T09:05:31.573Z,10.24
2019-03-17T09:08:06.400Z,10.32
2019-03-17T09:10:40.176Z,10.36
2019-03-17T09:13:14.341Z,10.38
2019-03-17T09:15:49.144Z,10.34
2019-03-17T09:18:23.037Z,10.35
2019-03-17T09:20:56.655Z,10.27
2019-03-17T09:23:30.700Z,10.19
2019-03-17T09:26:04.771Z,10.12
2019-03-17T09:28:39.409Z,10.02
2019-03-17T09:31:13.189Z,9.06
2019-03-17T09:33:47.135Z,8.17
2019-03-17T09:36:22.117Z,8.04
2019-03-17T09:38:55.995Z,7.78
2019-03-17T09:41:30.550Z,7.86
2019-03-17T09:44:05.786Z,7.93
2019-03-17T09:46:40.937Z,7.63
2019-03-17T09:49:14.738Z,7.58
2019-03-17T09:51:49.796Z,7.73
2019-03-17T09:54:23.652Z,7.59
2019-03-17T09:56:57.429Z,7.83
2019-03-17T09:59:31.612Z,7.66
2019-03-17T10:02:05.333Z,7.86
2019-03-17T10:04:39.119Z,7.92
2019-03-17T10:07:13.081Z,8.29
2019-03-17T10:09:46.926Z,8.50
2019-03-17T10:12:22.612Z,8.64
2019-03-17T10:14:56.618Z,8.72
2019-03-17T10:17:30.219Z,8.52
2019-03-17T10:20:05.424Z,8.34
2019-03-17T10:22:39.966Z,8.14
2019-03-17T10:25:14.456Z,8.14
2019-03-17T10:27:49.316Z,8.25
2019-03-17T10:30:25.262Z,8.43
2019-03-17T10:32:58.986Z,8.68
2019-03-17T10:35:33.720Z,8.90
2019-03-17T10:38:07.767Z,8.83
2019-03-17T10:40:42.159Z,8.83
2019-03-17T10:43:16.131Z,8.78
2019-03-17T10:45:50.995Z,8.69
2019-03-17T10:48:24.625Z,8.59
2019-03-17T10:50:59.794Z,8.60
2019-03-17T10:53:33.744Z,8.73
2019-03-17T10:56:07.605Z,8.52
2019-03-17T10:58:41.380Z,8.52
2019-03-17T11:01:15.121Z,8.55
2019-03-17T11:03:49.901Z,8.64
2019-03-17T11:06:23.755Z,8.56
2019-03-17T11:08:58.776Z,8.69
2019-03-17T11:11:32.582Z,8.60
2019-03-17T11:14:06.438Z,8.78
2019-03-17T11:16:41.606Z,8.79
2019-03-17T11:19:17.046Z,8.81
2019-03-17T11:21:51.616Z,9.10
2019-03-17T11:24:25.487Z,9.31
2019-03-17T11:27:00.004Z,9.55
2019-03-17T11:29:34.273Z,9.65
2019-03-17T11:32:10.080Z,9.87
2019-03-17T11:34:44.144Z,9.63
2019-03-17T11:37:18.102Z,9.70
2019-03-17T11:39:52.694Z,9.82
2019-03-17T11:42:27.847Z,9.79
2019-03-17T11:45:03.617Z,9.82
2019-03-17T11:47:37.434Z,9.69
2019-03-17T11:50:12.920Z,9.60
2019-03-17T11:52:46.994Z,9.61
2019-03-17T11:55:22.348Z,9.61
2019-03-17T11:57:57.687Z,9.73
2019-03-17T12:00:33.377Z,9.70
2019-03-17T12:03:07.666Z,9.67
2019-03-17T12:05:42.581Z,9.69
2019-03-17T12:08:16.522Z,9.68
2019-03-17T12:10:50.122Z,9.60
2019-03-17T12:14:15.454Z,9.50
2019-03-17T12:17:33.393Z,9.49
2019-03-17T12:20:53.908Z,9.57
2019-03-17T12:23:29.428Z,9.54
2019-03-17T12:26:03.461Z,9.45
2019-03-17T12:28:57.240Z,9.57
2019-03-17T12:31:57.666Z,9.61
2019-03-17T12:35:17.755Z,9.43
2019-03-17T12:38:25.134Z,9.36
2019-03-17T12:40:59.261Z,9.36
2019-03-17T12:43:56.706Z,9.14
2019-03-17T12:46:37.900Z,9.20
2019-03-17T12:49:33.352Z,9.28
2019-03-17T12:52:57.171Z,9.35
2019-03-17T12:55:31.964Z,9.39
2019-03-17T12:58:14.991Z,9.39
2019-03-17T13:01:47.078Z,9.49
2019-03-17T13:04:58.850Z,9.52
2019-03-17T13:08:05.202Z,9.66
2019-03-17T13:10:41.409Z,9.71
2019-03-17T13:13:20.838Z,9.75
2019-03-17T13:16:50.557Z,9.68
2019-03-17T13:20:07.183Z,9.71
2019-03-17T13:23:33.639Z,9.59
2019-03-17T13:26:06.205Z,9.75
2019-03-17T13:28:40.716Z,9.78
2019-03-17T13:31:14.947Z,9.52
2019-03-17T13:33:51.863Z,9.52
2019-03-17T13:36:25.553Z,9.39
2019-03-17T13:38:59.365Z,9.27
2019-03-17T13:41:33.977Z,9.04
2019-03-17T13:44:07.890Z,9.01
2019-03-17T13:46:41.737Z,9.08
2019-03-17T13:49:15.634Z,8.87
2019-03-17T13:51:49.752Z,8.88
2019-03-17T13:54:23.713Z,8.94
2019-03-17T13:56:59.399Z,9.14
2019-03-17T13:59:33.589Z,9.44
2019-03-17T14:02:09.893Z,9.39
2019-03-17T14:04:44.295Z,9.70
2019-03-17T14:07:18.994Z,9.60
2019-03-17T14:09:53.903Z,9.66
2019-03-17T14:12:28.036Z,9.91
2019-03-17T14:15:01.615Z,10.04
2019-03-17T14:17:35.270Z,10.24
2019-03-17T14:20:11.197Z,10.41
2019-03-17T14:22:44.881Z,10.34
2019-03-17T14:25:24.921Z,10.41
2019-03-17T14:27:59.757Z,10.33
2019-03-17T14:30:33.628Z,10.13
2019-03-17T14:33:07.501Z,10.07
2019-03-17T14:35:41.636Z,9.84
2019-03-17T14:38:16.703Z,9.58
2019-03-17T14:40:53.877Z,9.34
2019-03-17T14:43:26.651Z,9.22
2019-03-17T14:46:00.663Z,8.72
2019-03-17T14:48:36.301Z,8.40
2019-03-17T14:51:09.915Z,7.74
2019-03-17T14:53:43.755Z,7.31
2019-03-17T14:56:18.040Z,7.21
2019-03-17T14:58:53.909Z,7.25
2019-03-17T15:01:27.736Z,7.25
2019-03-17T15:04:02.903Z,7.06
2019-03-17T15:06:36.992Z,7.29
2019-03-17T15:09:10.893Z,7.32
2019-03-17T15:11:44.871Z,7.64
2019-03-17T15:14:18.749Z,7.88
2019-03-17T15:16:52.657Z,7.98
2019-03-17T15:19:26.337Z,7.92
2019-03-17T15:21:59.975Z,8.02
2019-03-17T15:24:35.077Z,7.90
2019-03-17T15:27:09.035Z,7.72
2019-03-17T15:29:42.867Z,7.73
2019-03-17T15:32:16.486Z,7.55
2019-03-17T15:34:52.199Z,7.42
2019-03-17T15:37:25.933Z,7.38
2019-03-17T15:39:59.828Z,7.29
2019-03-17T15:42:34.643Z,7.27
2019-03-17T15:45:10.377Z,7.29
2019-03-17T15:47:47.625Z,7.29
2019-03-17T15:50:21.702Z,7.25
2019-03-17T15:52:55.951Z,7.33
2019-03-17T15:55:30.525Z,7.36
2019-03-17T15:58:04.382Z,7.23
2019-03-17T16:00:39.602Z,7.34
2019-03-17T16:03:13.713Z,7.58
2019-03-17T16:05:47.962Z,7.68
2019-03-17T16:08:23.293Z,7.90
2019-03-17T16:10:59.110Z,7.79
2019-03-17T16:13:32.965Z,7.76
2019-03-17T16:16:06.901Z,7.79
2019-03-17T16:18:41.772Z,7.64
2019-03-17T16:21:17.017Z,7.60
2019-03-17T16:23:51.449Z,7.44
2019-03-17T16:26:28.010Z,7.48
2019-03-17T16:29:02.504Z,7.20
2019-03-17T16:31:36.427Z,7.25
2019-03-17T16:34:11.196Z,7.20
2019-03-17T16:36:45.039Z,7.22
2019-03-17T16:39:19.868Z,7.13
2019-03-17T16:41:55.615Z,7.04
2019-03-17T16:44:29.516Z,6.91
2019-03-17T16:47:05.125Z,6.85
2019-03-17T16:49:38.831Z,6.81
2019-03-17T16:52:12.795Z,6.70
2019-03-17T16:54:46.707Z,6.73
2019-03-17T16:57:20.871Z,6.70
2019-03-17T16:59:54.597Z,6.73
2019-03-17T17:02:30.431Z,6.65
2019-03-17T17:05:05.432Z,6.70
2019-03-17T17:07:39.584Z,6.57
2019-03-17T17:10:15.518Z,6.41
2019-03-17T17:12:49.701Z,6.35
2019-03-17T17:15:26.149Z,6.36
2019-03-17T17:18:00.175Z,6.33
2019-03-17T17:20:34.543Z,6.34
2019-03-17T17:23:10.243Z,6.28
2019-03-17T17:25:46.985Z,6.14
2019-03-17T17:28:22.007Z,6.12
2019-03-17T17:30:57.737Z,6.09
2019-03-17T17:33:31.488Z,6.09
2019-03-17T17:36:08.663Z,6.10
2019-03-17T17:38:42.723Z,5.85
2019-03-17T17:41:16.449Z,5.89
2019-03-17T17:43:52.896Z,5.85
2019-03-17T17:46:26.691Z,6.02
2019-03-17T17:49:02.023Z,6.05
2019-03-17T17:51:35.855Z,6.06
2019-03-17T17:54:10.832Z,6.13
2019-03-17T17:56:44.556Z,6.06
2019-03-17T17:59:20.192Z,5.96
2019-03-17T18:01:54.943Z,5.90
2019-03-17T18:04:30.611Z,5.91
2019-03-17T18:07:05.952Z,5.81
2019-03-17T18:09:40.090Z,5.62
2019-03-17T18:12:20.981Z,5.59
2019-03-17T18:14:52.466Z,5.55
2019-03-17T18:17:29.122Z,5.39
2019-03-17T18:20:03.762Z,5.26
2019-03-17T18:22:38.621Z,5.19
2019-03-17T18:25:15.143Z,5.16
2019-03-17T18:27:49.687Z,5.12
2019-03-17T18:30:24.718Z,5.11
2019-03-17T18:33:01.082Z,5.02
2019-03-17T18:35:35.221Z,4.93
2019-03-17T18:38:09.642Z,4.82
2019-03-17T18:40:44.098Z,4.83
2019-03-17T18:43:19.761Z,4.81
2019-03-17T18:45:53.923Z,4.94
2019-03-17T18:48:30.619Z,5.01
2019-03-17T18:51:07.811Z,5.00
2019-03-17T18:53:43.497Z,5.02
2019-03-17T18:56:18.573Z,5.05
2019-03-17T18:58:54.899Z,5.14
2019-03-17T19:01:28.573Z,5.16
2019-03-17T19:04:10.415Z,5.04
2019-03-17T19:06:44.756Z,4.99
2019-03-17T19:09:18.649Z,4.99
2019-03-17T19:11:52.778Z,5.18
2019-03-17T19:14:26.671Z,4.97
2019-03-17T19:17:00.641Z,4.89
2019-03-17T19:19:34.631Z,4.87
2019-03-17T19:22:08.396Z,4.74
2019-03-17T19:24:42.288Z,4.80
2019-03-17T19:27:16.288Z,4.86
2019-03-17T19:29:52.618Z,4.90
2019-03-17T19:32:27.757Z,4.88
2019-03-17T19:35:01.816Z,4.88
2019-03-17T19:37:35.797Z,4.98
2019-03-17T19:40:11.325Z,4.87
2019-03-17T19:42:58.086Z,4.84
2019-03-17T19:45:23.452Z,4.85
2019-03-17T19:47:57.236Z,4.79
2019-03-17T19:50:31.266Z,4.66
2019-03-17T19:53:07.948Z,4.66
2019-03-17T19:55:42.145Z,4.53
2019-03-17T19:58:17.830Z,4.40
2019-03-17T20:00:51.978Z,4.41
2019-03-17T20:03:28.460Z,4.39
2019-03-17T20:06:04.730Z,4.44
2019-03-17T20:08:39.230Z,4.36
2019-03-17T20:11:14.202Z,4.26
2019-03-17T20:13:59.965Z,4.38
2019-03-17T20:16:34.110Z,4.41
2019-03-17T20:19:08.180Z,4.31
2019-03-17T20:21:42.372Z,4.30
2019-03-17T20:24:18.756Z,4.27
2019-03-17T20:26:57.093Z,4.31
2019-03-17T20:29:31.916Z,4.35
2019-03-17T20:32:05.711Z,4.30
2019-03-17T20:34:39.552Z,4.28
2019-03-17T20:37:13.963Z,4.26
2019-03-17T20:39:48.225Z,4.24
2019-03-17T20:42:21.986Z,4.07
2019-03-17T20:44:56.346Z,4.11
2019-03-17T20:47:30.413Z,4.34
2019-03-17T20:50:04.452Z,4.23
2019-03-17T20:52:38.465Z,4.23
2019-03-17T20:55:12.672Z,4.13
2019-03-17T20:57:46.837Z,4.03
2019-03-17T21:00:21.300Z,4.00
2019-03-17T21:02:56.640Z,4.02
2019-03-17T21:05:32.139Z,4.14
2019-03-17T21:08:06.254Z,4.11
2019-03-17T21:10:40.460Z,4.20
2019-03-17T21:13:16.848Z,4.16
2019-03-17T21:15:50.600Z,4.11
2019-03-17T21:18:24.616Z,4.31
2019-03-17T21:20:59.129Z,4.26
2019-03-17T21:23:32.755Z,4.30
2019-03-17T21:26:07.120Z,4.29
2019-03-17T21:28:40.814Z,4.20
2019-03-17T21:31:16.491Z,4.20
2019-03-17T21:33:50.452Z,4.18
2019-03-17T21:36:26.213Z,4.11
2019-03-17T21:39:00.635Z,4.02
2019-03-17T21:41:34.241Z,3.99
2019-03-17T21:44:07.806Z,3.97
2019-03-17T21:46:41.407Z,4.00
2019-03-17T21:49:14.994Z,4.07
2019-03-17T21:51:48.772Z,3.96
2019-03-17T21:54:23.958Z,3.92
2019-03-17T21:56:59.036Z,3.93
2019-03-17T21:59:33.246Z,3.97
2019-03-17T22:02:12.963Z,3.97
2019-03-17T22:04:42.398Z,3.97
2019-03-17T22:07:16.896Z,3.88
2019-03-17T22:09:51.202Z,3.84
2019-03-17T22:12:25.028Z,3.80
2019-03-17T22:14:58.613Z,3.96
2019-03-17T22:17:32.344Z,3.94
2019-03-17T22:20:08.889Z,3.85
2019-03-17T22:22:42.961Z,3.90
2019-03-17T22:25:16.614Z,3.80
2019-03-17T22:27:52.184Z,3.78
2019-03-17T22:30:25.999Z,3.82
2019-03-17T22:32:59.780Z,3.91
2019-03-17T22:35:33.475Z,3.94
2019-03-17T22:38:08.485Z,3.95
2019-03-17T22:40:42.426Z,4.00
2019-03-17T22:43:17.354Z,3.93
2019-03-17T22:45:51.061Z,3.92
2019-03-17T22:48:26.200Z,3.95
2019-03-17T22:51:01.338Z,4.00
2019-03-17T22:53:36.924Z,3.93
2019-03-17T22:56:12.455Z,3.91
2019-03-17T22:58:46.219Z,3.90
2019-03-17T23:01:20.080Z,3.97
2019-03-17T23:03:53.842Z,3.89
2019-03-17T23:06:27.893Z,3.93
2019-03-17T23:09:01.528Z,3.94
2019-03-17T23:11:36.099Z,3.88
2019-03-17T23:14:09.896Z,3.91
2019-03-17T23:16:46.787Z,3.87
2019-03-17T23:19:20.932Z,3.95
2019-03-17T23:21:54.723Z,4.01
2019-03-17T23:24:28.415Z,3.99
2019-03-17T23:27:02.139Z,4.03
2019-03-17T23:29:36.073Z,4.01
2019-03-17T23:32:09.829Z,4.00
2019-03-17T23:34:43.748Z,3.84
2019-03-17T23:37:17.493Z,3.95
2019-03-17T23:39:53.253Z,3.89
2019-03-17T23:42:26.974Z,3.92
2019-03-17T23:45:01.640Z,3.94
2019-03-17T23:47:35.554Z,3.86
2019-03-17T23:50:09.981Z,3.77
2019-03-17T23:52:45.069Z,3.79
2019-03-17T23:55:19.024Z,3.67
2019-03-17T23:57:52.745Z,3.73
